createdAt,value
2017-10-11T00:01:52.317Z,13.60
2017-10-11T00:04:28.068Z,13.50
2017-10-11T00:06:56.755Z,13.60
2017-10-11T00:09:25.450Z,13.60
2017-10-11T00:11:54.180Z,13.60
2017-10-11T00:14:25.468Z,13.60
2017-10-11T00:16:54.170Z,13.60
2017-10-11T00:19:22.895Z,13.60
2017-10-11T00:21:52.336Z,13.60
2017-10-11T00:24:21.032Z,13.60
2017-10-11T00:26:49.711Z,13.60
2017-10-11T00:29:24.680Z,13.60
2017-10-11T00:31:53.376Z,13.60
2017-10-11T00:34:22.087Z,13.60
2017-10-11T00:36:50.769Z,13.60
2017-10-11T00:39:19.449Z,13.70
2017-10-11T00:41:48.908Z,13.70
2017-10-11T00:44:17.602Z,13.70
2017-10-11T00:46:46.319Z,13.70
2017-10-11T00:49:15.776Z,13.70
2017-10-11T00:51:44.464Z,13.70
2017-10-11T00:54:13.171Z,13.70
2017-10-11T00:56:41.885Z,13.70
2017-10-11T00:59:11.339Z,13.70
2017-10-11T01:01:40.042Z,13.80
2017-10-11T01:04:08.748Z,13.80
2017-10-11T01:06:43.719Z,13.80
2017-10-11T01:09:12.427Z,13.80
2017-10-11T01:11:41.120Z,13.80
2017-10-11T01:14:09.809Z,13.80
2017-10-11T01:16:38.508Z,13.90
2017-10-11T01:19:07.193Z,13.90
2017-10-11T01:21:35.888Z,13.80
2017-10-11T01:24:04.602Z,13.80
2017-10-11T01:26:33.302Z,13.70
2017-10-11T01:29:02.965Z,13.80
2017-10-11T01:31:31.652Z,13.80
2017-10-11T01:34:00.345Z,13.80
2017-10-11T01:36:31.889Z,13.80
2017-10-11T01:39:00.884Z,13.80
2017-10-11T01:41:35.803Z,13.90
2017-10-11T01:44:04.512Z,13.90
2017-10-11T01:46:34.728Z,13.90
2017-10-11T01:49:04.237Z,13.90
2017-10-11T01:51:33.703Z,13.90
2017-10-11T01:54:02.371Z,14.00
2017-10-11T01:56:31.056Z,14.00
2017-10-11T01:58:59.740Z,14.00
2017-10-11T02:01:28.432Z,14.00
2017-10-11T02:03:57.117Z,14.00
2017-10-11T02:06:25.817Z,14.00
2017-10-11T02:08:54.509Z,14.00
2017-10-11T02:11:24.862Z,14.00
2017-10-11T02:13:53.543Z,14.00
2017-10-11T02:16:22.996Z,14.00
2017-10-11T02:18:51.708Z,14.00
2017-10-11T02:21:21.999Z,14.00
2017-10-11T02:23:50.684Z,14.00
2017-10-11T02:26:19.390Z,14.10
2017-10-11T02:28:48.978Z,14.10
2017-10-11T02:31:18.460Z,14.00
2017-10-11T02:33:47.144Z,14.10
2017-10-11T02:36:15.871Z,14.10
2017-10-11T02:38:44.554Z,14.00
2017-10-11T02:41:13.230Z,14.00
2017-10-11T02:43:41.957Z,14.10
2017-10-11T02:46:10.640Z,14.00
2017-10-11T02:48:39.350Z,14.00
2017-10-11T02:51:08.800Z,14.00
2017-10-11T02:53:37.510Z,14.00
2017-10-11T02:56:06.196Z,14.10
2017-10-11T02:58:35.794Z,14.00
2017-10-11T03:01:04.509Z,14.00
2017-10-11T03:03:33.956Z,14.00
2017-10-11T03:06:03.539Z,13.90
2017-10-11T03:08:39.207Z,13.90
2017-10-11T03:11:07.910Z,13.90
2017-10-11T03:13:36.603Z,13.90
2017-10-11T03:16:05.295Z,13.90
2017-10-11T03:18:35.603Z,13.90
2017-10-11T03:21:05.916Z,14.00
2017-10-11T03:23:40.899Z,13.90
2017-10-11T03:26:09.585Z,14.00
2017-10-11T03:28:38.292Z,14.00
2017-10-11T03:31:06.973Z,14.00
2017-10-11T03:33:37.284Z,14.00
2017-10-11T03:36:05.971Z,14.00
2017-10-11T03:38:35.424Z,14.00
2017-10-11T03:41:04.111Z,14.10
2017-10-11T03:43:33.736Z,14.00
2017-10-11T03:46:02.448Z,14.10
2017-10-11T03:48:36.236Z,14.10
2017-10-11T03:51:04.984Z,14.10
2017-10-11T03:53:33.659Z,14.00
2017-10-11T03:56:02.340Z,14.00
2017-10-11T03:58:31.033Z,14.00
2017-10-11T04:00:59.720Z,14.00
2017-10-11T04:03:28.420Z,14.00
2017-10-11T04:05:57.128Z,14.00
2017-10-11T04:08:25.839Z,14.00
2017-10-11T04:10:56.567Z,14.00
2017-10-11T04:13:26.132Z,14.00
2017-10-11T04:16:01.019Z,13.90
2017-10-11T04:18:30.500Z,13.90
2017-10-11T04:21:05.324Z,13.80
2017-10-11T04:23:35.040Z,12.90
2017-10-11T04:26:10.021Z,13.70
2017-10-11T04:28:44.880Z,13.60
2017-10-11T04:31:13.574Z,13.50
2017-10-11T04:33:42.261Z,13.50
2017-10-11T04:36:10.954Z,13.50
2017-10-11T04:38:39.639Z,13.40
2017-10-11T04:41:08.336Z,13.40
2017-10-11T04:43:43.244Z,13.40
2017-10-11T04:46:11.968Z,13.50
2017-10-11T04:48:41.429Z,13.60
2017-10-11T04:51:10.138Z,13.60
2017-10-11T04:53:38.856Z,13.60
2017-10-11T04:56:07.543Z,13.60
2017-10-11T04:58:36.246Z,13.60
2017-10-11T05:01:04.929Z,13.60
2017-10-11T05:03:34.544Z,13.60
2017-10-11T05:06:03.238Z,13.60
2017-10-11T05:08:31.936Z,13.60
2017-10-11T05:11:00.629Z,13.70
2017-10-11T05:13:29.316Z,13.70
2017-10-11T05:15:58.013Z,13.70
2017-10-11T05:18:32.832Z,13.60
2017-10-11T05:21:02.452Z,13.70
2017-10-11T05:23:31.176Z,13.80
2017-10-11T05:25:59.872Z,13.70
2017-10-11T05:28:30.475Z,13.70
2017-10-11T05:30:59.928Z,13.60
2017-10-11T05:33:28.628Z,13.50
2017-10-11T05:35:57.324Z,13.50
2017-10-11T05:38:32.081Z,13.50
2017-10-11T05:41:06.915Z,13.40
2017-10-11T05:43:36.389Z,13.30
2017-10-11T05:46:05.097Z,13.30
2017-10-11T05:48:34.568Z,13.30
2017-10-11T05:51:03.319Z,13.20
2017-10-11T05:53:31.999Z,13.30
2017-10-11T05:56:00.688Z,13.20
2017-10-11T05:58:29.371Z,13.20
2017-10-11T06:00:58.082Z,13.20
2017-10-11T06:03:26.782Z,13.20
2017-10-11T06:05:55.481Z,13.10
2017-10-11T06:08:30.502Z,13.10
2017-10-11T06:10:59.191Z,13.10
2017-10-11T06:13:34.218Z,13.10
2017-10-11T06:16:02.907Z,13.10
2017-10-11T06:18:31.634Z,13.20
2017-10-11T06:21:01.088Z,13.20
2017-10-11T06:23:29.783Z,13.20
2017-10-11T06:26:04.725Z,13.20
2017-10-11T06:28:39.688Z,13.30
2017-10-11T06:31:14.536Z,13.30
2017-10-11T06:33:43.508Z,13.30
2017-10-11T06:36:12.964Z,13.30
2017-10-11T06:38:47.816Z,13.40
2017-10-11T06:41:16.515Z,13.40
2017-10-11T06:43:45.966Z,13.40
2017-10-11T06:46:16.328Z,13.50
2017-10-11T06:48:45.012Z,13.60
2017-10-11T06:51:20.049Z,13.60
2017-10-11T06:53:48.735Z,13.70
2017-10-11T06:56:18.316Z,14.00
2017-10-11T06:58:47.007Z,14.30
2017-10-11T07:01:21.949Z,14.60
2017-10-11T07:03:50.636Z,15.10
2017-10-11T07:06:25.536Z,15.50
2017-10-11T07:08:54.248Z,15.80
2017-10-11T07:11:29.150Z,16.10
2017-10-11T07:13:57.864Z,16.10
2017-10-11T07:16:26.552Z,16.00
2017-10-11T07:18:55.235Z,16.00
2017-10-11T07:21:23.929Z,15.60
2017-10-11T07:23:52.606Z,15.80
2017-10-11T07:26:21.291Z,15.90
2017-10-11T07:28:49.971Z,16.00
2017-10-11T07:31:19.492Z,16.10
2017-10-11T07:33:48.180Z,16.00
2017-10-11T07:36:16.867Z,16.00
2017-10-11T07:38:45.552Z,16.10
2017-10-11T07:41:14.241Z,16.20
2017-10-11T07:43:49.231Z,16.30
2017-10-11T07:46:17.912Z,16.50
2017-10-11T07:48:46.595Z,16.50
2017-10-11T07:51:15.297Z,16.70
2017-10-11T07:53:43.979Z,16.90
2017-10-11T07:56:12.659Z,17.00
2017-10-11T07:58:47.500Z,17.10
2017-10-11T08:01:16.200Z,17.20
2017-10-11T08:03:44.892Z,17.40
2017-10-11T08:06:13.571Z,17.60
2017-10-11T08:08:48.363Z,17.60
2017-10-11T08:11:17.048Z,17.70
2017-10-11T08:13:45.758Z,17.60
2017-10-11T08:16:14.441Z,17.60
2017-10-11T08:18:43.122Z,17.80
2017-10-11T08:21:12.802Z,17.90
2017-10-11T08:23:41.501Z,17.90
2017-10-11T08:26:10.186Z,18.00
2017-10-11T08:28:38.872Z,18.00
2017-10-11T08:31:07.580Z,18.10
2017-10-11T08:33:37.189Z,18.20
2017-10-11T08:36:05.883Z,18.30
2017-10-11T08:38:41.529Z,18.40
2017-10-11T08:41:10.216Z,18.60
2017-10-11T08:43:38.923Z,18.70
2017-10-11T08:46:07.613Z,18.70
2017-10-11T08:48:36.295Z,19.00
2017-10-11T08:51:04.988Z,19.20
2017-10-11T08:53:33.668Z,19.30
2017-10-11T08:56:02.376Z,19.50
2017-10-11T08:58:31.833Z,19.80
2017-10-11T09:01:00.520Z,19.90
2017-10-11T09:03:35.436Z,19.90
2017-10-11T09:06:10.343Z,19.70
2017-10-11T09:08:45.245Z,19.70
2017-10-11T09:11:14.689Z,19.80
2017-10-11T09:13:49.674Z,20.00
2017-10-11T09:16:19.247Z,20.30
2017-10-11T09:18:47.933Z,20.50
2017-10-11T09:21:17.467Z,20.80
2017-10-11T09:23:46.945Z,20.90
2017-10-11T09:26:15.635Z,21.10
2017-10-11T09:28:44.325Z,21.90
2017-10-11T09:31:19.223Z,23.00
2017-10-11T09:33:47.911Z,23.40
2017-10-11T09:36:16.620Z,23.90
2017-10-11T09:38:45.304Z,23.90
2017-10-11T09:41:14.092Z,23.70
2017-10-11T09:43:42.760Z,23.60
2017-10-11T09:46:17.579Z,23.70
2017-10-11T09:48:46.264Z,23.80
2017-10-11T09:51:21.200Z,24.00
2017-10-11T09:53:49.904Z,23.90
2017-10-11T09:56:18.589Z,23.80
2017-10-11T09:58:48.124Z,23.90
2017-10-11T10:01:17.716Z,24.50
2017-10-11T10:03:52.642Z,25.20
2017-10-11T10:06:21.373Z,25.70
2017-10-11T10:08:50.048Z,27.40
2017-10-11T10:11:21.771Z,29.50
2017-10-11T10:13:50.449Z,31.10
2017-10-11T10:16:19.133Z,32.00
2017-10-11T10:18:54.141Z,31.30
2017-10-11T10:21:22.908Z,32.70
2017-10-11T10:23:57.820Z,31.70
2017-10-11T10:26:33.055Z,30.70
2017-10-11T10:29:01.896Z,31.50
2017-10-11T10:31:30.575Z,32.20
2017-10-11T10:34:05.057Z,31.40
2017-10-11T10:36:33.737Z,30.50
2017-10-11T10:39:02.412Z,29.90
2017-10-11T10:41:37.248Z,29.00
2017-10-11T10:44:12.069Z,27.70
2017-10-11T10:46:40.779Z,29.50
2017-10-11T10:49:10.232Z,29.00
2017-10-11T10:51:38.914Z,28.60
2017-10-11T10:54:07.605Z,28.80
2017-10-11T10:56:36.295Z,30.60
2017-10-11T10:59:04.997Z,31.90
2017-10-11T11:01:39.772Z,32.00
2017-10-11T11:04:14.584Z,30.50
2017-10-11T11:06:44.035Z,29.30
2017-10-11T11:09:18.876Z,28.20
2017-10-11T11:11:53.771Z,28.40
2017-10-11T11:14:23.364Z,30.00
2017-10-11T11:16:52.836Z,32.10
2017-10-11T11:19:22.325Z,34.20
2017-10-11T11:21:57.152Z,35.20
2017-10-11T11:24:25.843Z,36.10
2017-10-11T11:26:54.791Z,35.40
2017-10-11T11:29:25.249Z,35.60
2017-10-11T11:31:53.951Z,33.60
2017-10-11T11:34:28.867Z,31.60
2017-10-11T11:36:57.564Z,30.40
2017-10-11T11:39:32.452Z,28.70
2017-10-11T11:42:01.134Z,27.70
2017-10-11T11:44:29.819Z,26.90
2017-10-11T11:46:58.529Z,26.10
2017-10-11T11:49:33.461Z,25.60
2017-10-11T11:52:03.821Z,24.90
2017-10-11T11:54:32.497Z,25.00
2017-10-11T11:57:01.176Z,25.00
2017-10-11T11:59:29.881Z,24.70
2017-10-11T12:02:05.909Z,24.40
2017-10-11T12:04:39.470Z,24.30
2017-10-11T12:07:09.514Z,25.30
2017-10-11T12:09:38.356Z,25.60
2017-10-11T12:12:07.045Z,27.60
2017-10-11T12:14:35.715Z,30.30
2017-10-11T12:17:04.404Z,30.80
2017-10-11T12:19:40.025Z,29.10
2017-10-11T12:22:08.710Z,28.10
2017-10-11T12:24:37.396Z,27.40
2017-10-11T12:27:06.944Z,27.20
2017-10-11T12:29:36.394Z,26.90
2017-10-11T12:32:13.021Z,29.50
2017-10-11T12:34:42.644Z,29.80
2017-10-11T12:37:11.776Z,30.40
2017-10-11T12:39:40.480Z,32.70
2017-10-11T12:42:09.206Z,35.20
2017-10-11T12:44:38.663Z,36.10
2017-10-11T12:47:07.340Z,37.10
2017-10-11T12:49:42.204Z,35.40
2017-10-11T12:52:16.992Z,35.30
2017-10-11T12:54:46.524Z,36.90
2017-10-11T12:57:15.209Z,38.60
2017-10-11T12:59:50.869Z,40.10
2017-10-11T13:02:20.420Z,40.80
2017-10-11T13:04:49.305Z,40.40
2017-10-11T13:07:24.332Z,40.20
2017-10-11T13:09:53.008Z,40.50
2017-10-11T13:12:22.513Z,40.90
2017-10-11T13:14:51.974Z,41.60
2017-10-11T13:17:20.660Z,41.90
2017-10-11T13:19:55.676Z,40.80
2017-10-11T13:22:30.621Z,40.40
2017-10-11T13:24:59.301Z,38.20
2017-10-11T13:27:34.290Z,35.60
2017-10-11T13:30:02.984Z,34.10
2017-10-11T13:32:37.849Z,33.00
2017-10-11T13:35:12.684Z,31.50
2017-10-11T13:37:47.491Z,30.60
2017-10-11T13:40:16.176Z,30.70
2017-10-11T13:42:44.903Z,30.20
2017-10-11T13:45:19.926Z,29.60
2017-10-11T13:47:48.620Z,30.60
2017-10-11T13:50:24.344Z,31.20
2017-10-11T13:52:53.363Z,33.10
2017-10-11T13:55:22.052Z,35.30
2017-10-11T13:57:50.745Z,36.80
2017-10-11T14:00:19.432Z,37.90
2017-10-11T14:02:54.395Z,38.90
2017-10-11T14:05:23.937Z,40.10
2017-10-11T14:07:52.622Z,40.50
2017-10-11T14:10:27.560Z,40.00
2017-10-11T14:12:56.245Z,40.50
2017-10-11T14:15:24.930Z,40.70
2017-10-11T14:17:53.621Z,40.70
2017-10-11T14:20:28.134Z,40.60
2017-10-11T14:23:03.117Z,40.70
2017-10-11T14:25:32.559Z,40.10
2017-10-11T14:28:01.429Z,38.80
2017-10-11T14:30:30.214Z,38.70
2017-10-11T14:33:05.105Z,38.90
2017-10-11T14:35:33.807Z,39.10
2017-10-11T14:38:08.635Z,39.60
2017-10-11T14:40:38.080Z,40.00
2017-10-11T14:43:06.760Z,40.10
2017-10-11T14:45:37.115Z,39.60
2017-10-11T14:48:12.039Z,39.90
2017-10-11T14:50:41.752Z,40.10
2017-10-11T14:53:10.433Z,39.60
2017-10-11T14:55:39.120Z,39.10
2017-10-11T14:58:14.041Z,37.10
2017-10-11T15:00:43.662Z,35.10
2017-10-11T15:03:18.511Z,34.10
2017-10-11T15:05:53.347Z,32.90
2017-10-11T15:08:28.323Z,32.80
2017-10-11T15:10:57.424Z,31.80
2017-10-11T15:13:32.356Z,30.60
2017-10-11T15:16:01.069Z,30.70
2017-10-11T15:18:35.984Z,29.50
2017-10-11T15:21:11.691Z,27.90
2017-10-11T15:23:40.374Z,26.90
2017-10-11T15:26:15.367Z,25.90
2017-10-11T15:28:50.387Z,25.00
2017-10-11T15:31:19.101Z,24.30
2017-10-11T15:33:51.557Z,23.80
2017-10-11T15:36:20.273Z,23.60
2017-10-11T15:38:48.957Z,23.20
2017-10-11T15:41:17.654Z,23.40
2017-10-11T15:43:47.117Z,23.30
2017-10-11T15:46:22.020Z,23.10
2017-10-11T15:48:51.559Z,21.60
2017-10-11T15:51:26.300Z,22.40
2017-10-11T15:53:55.003Z,22.00
2017-10-11T15:56:23.696Z,21.80
2017-10-11T15:58:52.383Z,21.30
2017-10-11T16:01:21.826Z,21.00
2017-10-11T16:03:50.540Z,20.60
2017-10-11T16:06:25.435Z,20.40
2017-10-11T16:08:54.135Z,20.20
2017-10-11T16:11:22.807Z,19.90
2017-10-11T16:13:51.504Z,19.70
2017-10-11T16:16:21.127Z,19.50
2017-10-11T16:18:51.796Z,19.30
2017-10-11T16:21:26.797Z,19.10
2017-10-11T16:23:55.496Z,18.90
2017-10-11T16:26:25.857Z,18.60
2017-10-11T16:29:00.778Z,18.50
2017-10-11T16:31:30.260Z,18.30
2017-10-11T16:33:58.956Z,18.10
2017-10-11T16:36:27.635Z,18.10
2017-10-11T16:39:02.613Z,17.80
2017-10-11T16:41:31.413Z,17.60
2017-10-11T16:44:06.388Z,17.60
2017-10-11T16:46:42.110Z,17.40
2017-10-11T16:49:11.620Z,17.40
2017-10-11T16:51:40.365Z,17.20
2017-10-11T16:54:09.092Z,17.10
2017-10-11T16:56:44.016Z,17.10
2017-10-11T16:59:12.775Z,17.00
2017-10-11T17:01:41.456Z,16.90
2017-10-11T17:04:11.813Z,16.90
2017-10-11T17:06:46.644Z,16.70
2017-10-11T17:09:24.275Z,16.50
2017-10-11T17:11:56.298Z,16.40
2017-10-11T17:14:26.089Z,16.40
2017-10-11T17:16:54.785Z,16.30
2017-10-11T17:19:29.734Z,16.20
2017-10-11T17:22:04.743Z,16.10
2017-10-11T17:24:33.410Z,16.00
2017-10-11T17:27:08.417Z,16.00
2017-10-11T17:29:38.334Z,15.90
2017-10-11T17:32:13.340Z,15.80
2017-10-11T17:34:42.021Z,15.60
2017-10-11T17:37:11.849Z,15.60
2017-10-11T17:39:42.203Z,15.50
2017-10-11T17:42:11.697Z,15.50
2017-10-11T17:44:41.414Z,15.50
2017-10-11T17:47:10.115Z,15.40
2017-10-11T17:49:46.045Z,15.20
2017-10-11T17:52:15.992Z,15.20
2017-10-11T17:54:45.624Z,15.10
2017-10-11T17:57:14.369Z,15.10
2017-10-11T17:59:50.110Z,15.00
2017-10-11T18:02:19.103Z,15.00
2017-10-11T18:04:48.020Z,14.90
2017-10-11T18:07:16.835Z,14.80
2017-10-11T18:09:48.195Z,14.80
2017-10-11T18:12:16.935Z,14.70
2017-10-11T18:14:52.316Z,14.70
2017-10-11T18:17:23.174Z,14.60
2017-10-11T18:19:54.578Z,14.50
2017-10-11T18:22:24.094Z,14.50
2017-10-11T18:24:53.778Z,14.50
2017-10-11T18:27:28.715Z,14.30
2017-10-11T18:29:57.494Z,14.30
2017-10-11T18:32:29.455Z,14.40
2017-10-11T18:35:04.885Z,14.30
2017-10-11T18:37:33.626Z,14.10
2017-10-11T18:40:10.055Z,14.10
2017-10-11T18:42:38.994Z,14.10
2017-10-11T18:45:09.349Z,14.10
2017-10-11T18:47:38.541Z,14.10
2017-10-11T18:50:07.346Z,14.00
2017-10-11T18:52:42.416Z,13.90
2017-10-11T18:55:11.177Z,13.90
2017-10-11T18:57:46.573Z,13.80
2017-10-11T19:00:15.373Z,13.90
2017-10-11T19:02:50.509Z,13.80
2017-10-11T19:05:22.483Z,13.70
2017-10-11T19:07:51.224Z,13.70
2017-10-11T19:10:20.874Z,13.70
2017-10-11T19:12:56.116Z,13.70
2017-10-11T19:15:25.156Z,13.60
2017-10-11T19:17:54.002Z,13.60
2017-10-11T19:20:22.708Z,13.50
2017-10-11T19:22:52.462Z,13.50
2017-10-11T19:25:27.420Z,13.50
2017-10-11T19:27:59.782Z,13.50
2017-10-11T19:30:29.473Z,13.40
2017-10-11T19:32:58.209Z,13.40
2017-10-11T19:35:27.696Z,13.20
2017-10-11T19:37:56.381Z,13.30
2017-10-11T19:40:25.866Z,13.20
2017-10-11T19:43:00.662Z,13.20
2017-10-11T19:45:29.566Z,13.20
2017-10-11T19:48:04.484Z,13.10
2017-10-11T19:50:33.533Z,12.20
2017-10-11T19:53:08.646Z,13.10
2017-10-11T19:55:43.198Z,13.00
2017-10-11T19:58:18.219Z,13.00
2017-10-11T20:00:53.825Z,13.00
2017-10-11T20:03:23.577Z,12.90
2017-10-11T20:05:52.392Z,13.00
2017-10-11T20:08:22.044Z,13.00
2017-10-11T20:10:56.991Z,12.80
2017-10-11T20:13:25.690Z,12.80
2017-10-11T20:15:57.530Z,12.80
2017-10-11T20:18:32.432Z,12.80
2017-10-11T20:21:01.277Z,12.70
2017-10-11T20:23:30.259Z,12.70
2017-10-11T20:26:05.931Z,12.60
2017-10-11T20:28:35.922Z,12.60
2017-10-11T20:31:05.475Z,12.60
2017-10-11T20:33:37.068Z,12.60
2017-10-11T20:36:12.330Z,12.50
2017-10-11T20:38:42.984Z,12.40
2017-10-11T20:41:12.998Z,12.40
2017-10-11T20:43:47.994Z,12.30
2017-10-11T20:46:17.543Z,12.30
2017-10-11T20:48:46.409Z,12.30
2017-10-11T20:51:21.304Z,12.30
2017-10-11T20:53:50.095Z,12.20
2017-10-11T20:56:25.278Z,12.20
2017-10-11T20:58:54.216Z,12.20
2017-10-11T21:01:22.929Z,12.10
2017-10-11T21:03:51.620Z,12.20
2017-10-11T21:06:26.496Z,12.10
2017-10-11T21:08:55.216Z,12.20
2017-10-11T21:11:23.936Z,12.20
2017-10-11T21:13:58.948Z,12.10
2017-10-11T21:16:27.791Z,12.20
2017-10-11T21:18:56.522Z,12.10
2017-10-11T21:21:25.249Z,12.20
2017-10-11T21:24:00.191Z,12.20
2017-10-11T21:26:28.948Z,12.10
2017-10-11T21:28:57.716Z,12.20
2017-10-11T21:31:27.345Z,12.10
2017-10-11T21:33:56.029Z,12.20
2017-10-11T21:36:32.037Z,12.20
2017-10-11T21:39:00.715Z,12.20
2017-10-11T21:41:35.739Z,12.10
2017-10-11T21:44:04.435Z,12.10
2017-10-11T21:46:33.136Z,12.10
2017-10-11T21:49:01.832Z,12.20
2017-10-11T21:51:32.518Z,12.20
2017-10-11T21:54:01.337Z,12.20
2017-10-11T21:56:30.024Z,12.30
2017-10-11T21:58:58.724Z,12.30
2017-10-11T22:01:33.524Z,12.30
2017-10-11T22:04:02.216Z,12.20
2017-10-11T22:06:30.908Z,12.30
2017-10-11T22:09:06.591Z,12.20
2017-10-11T22:11:35.275Z,12.10
2017-10-11T22:14:10.927Z,12.10
2017-10-11T22:16:39.619Z,12.10
2017-10-11T22:19:09.173Z,12.10
2017-10-11T22:21:37.933Z,12.20
2017-10-11T22:24:07.416Z,12.20
2017-10-11T22:26:42.388Z,12.20
2017-10-11T22:29:11.067Z,12.10
2017-10-11T22:31:39.762Z,12.10
2017-10-11T22:34:08.457Z,12.00
2017-10-11T22:36:37.143Z,12.00
2017-10-11T22:39:05.837Z,11.90
2017-10-11T22:41:34.590Z,11.80
2017-10-11T22:44:04.107Z,11.90
2017-10-11T22:46:32.795Z,11.80
2017-10-11T22:49:01.483Z,11.80
2017-10-11T22:51:30.242Z,11.70
2017-10-11T22:54:01.816Z,11.70
2017-10-11T22:56:30.529Z,11.70
2017-10-11T22:58:59.218Z,11.70
2017-10-11T23:01:27.908Z,11.70
2017-10-11T23:03:56.646Z,11.70
2017-10-11T23:06:25.400Z,11.60
2017-10-11T23:08:54.116Z,11.50
2017-10-11T23:11:23.577Z,11.50
2017-10-11T23:13:52.329Z,11.50
2017-10-11T23:16:21.090Z,11.50
2017-10-11T23:18:50.539Z,11.50
2017-10-11T23:21:19.256Z,11.30
2017-10-11T23:23:47.936Z,11.20
2017-10-11T23:26:16.632Z,11.20
2017-10-11T23:28:45.373Z,11.20
2017-10-11T23:31:14.117Z,11.20
2017-10-11T23:33:43.658Z,11.20
2017-10-11T23:36:17.679Z,11.20
2017-10-11T23:38:46.384Z,11.20
2017-10-11T23:41:15.064Z,11.20
2017-10-11T23:43:45.630Z,11.20
2017-10-11T23:46:15.279Z,11.20
2017-10-11T23:48:44.388Z,11.20
2017-10-11T23:51:13.079Z,11.10
2017-10-11T23:53:41.765Z,11.10
2017-10-11T23:56:12.160Z,11.20
2017-10-11T23:58:40.856Z,11.20
